Time;durP1;ratioP1;P1;durP2;ratioP2;P2;SDS_P1;SDS_P2;PMS_P1;PMS_P2;Temp;Humidity;BMP_temperature;BMP_pressure;BME280_temperature;BME280_humidity;BME280_pressure;Samples;Min_cycle;Max_cycle;Signal;HPM_P1;HPM_P2
2021/07/03 00:00:28;;;;;;;12.87;11.57;;;;;;;14.99;100.00;101015.75;4975283;28;20279;-72
2021/07/03 00:02:56;;;;;;;11.80;10.60;;;;;;;15.09;100.00;101010.16;4983884;28;20685;-71
2021/07/03 00:05:23;;;;;;;11.30;10.23;;;;;;;14.99;100.00;101009.47;4972656;28;20265;-72
2021/07/03 00:07:51;;;;;;;11.97;10.87;;;;;;;14.94;100.00;101007.59;4964388;28;20228;-72
2021/07/03 00:10:22;;;;;;;12.00;10.83;;;;;;;14.85;100.00;101008.53;4989078;28;20224;-72
2021/07/03 00:12:50;;;;;;;11.50;10.33;;;;;;;14.71;100.00;101011.16;4961834;28;20182;-72
2021/07/03 00:15:21;;;;;;;13.80;11.20;;;;;;;14.78;100.00;101002.59;4959187;28;20198;-72
2021/07/03 00:17:49;;;;;;;11.83;10.63;;;;;;;14.73;100.00;101005.41;4963969;28;20198;-72
2021/07/03 00:20:15;;;;;;;12.33;10.63;;;;;;;14.77;100.00;100999.06;4991151;28;20743;-74
2021/07/03 00:22:45;;;;;;;11.23;10.10;;;;;;;14.53;100.00;101005.63;4985083;28;20303;-72
2021/07/03 00:25:11;;;;;;;12.10;10.90;;;;;;;14.45;100.00;101003.53;4952840;28;20260;-74
2021/07/03 00:27:41;;;;;;;11.40;10.30;;;;;;;14.52;100.00;101003.97;4991749;28;20288;-71
2021/07/03 00:30:15;;;;;;;11.83;10.63;;;;;;;14.56;100.00;100999.59;4990260;28;20481;-72
2021/07/03 00:32:45;;;;;;;10.90;9.90;;;;;;;14.57;100.00;101000.41;4988363;28;20244;-74
2021/07/03 00:35:11;;;;;;;10.97;9.97;;;;;;;14.48;100.00;101013.06;4955473;28;20704;-73
2021/07/03 00:37:41;;;;;;;11.20;9.93;;;;;;;14.30;100.00;101006.41;4958703;28;20319;-74
2021/07/03 00:40:07;;;;;;;11.47;10.27;;;;;;;14.25;100.00;100998.25;4974429;28;20727;-74
2021/07/03 00:42:33;;;;;;;11.97;10.77;;;;;;;14.31;100.00;101008.03;4972187;28;20584;-73
2021/07/03 00:44:59;;;;;;;12.03;10.83;;;;;;;14.40;100.00;101000.84;4933429;28;20237;-74
2021/07/03 00:47:27;;;;;;;11.73;10.53;;;;;;;14.43;100.00;101010.38;4968949;28;20712;-73
2021/07/03 00:49:58;;;;;;;11.73;10.27;;;;;;;14.34;100.00;101007.47;4973003;28;20206;-73
2021/07/03 00:52:29;;;;;;;10.50;9.40;;;;;;;14.38;100.00;101013.97;4974586;28;20252;-73
2021/07/03 00:54:55;;;;;;;10.30;9.37;;;;;;;14.39;100.00;101010.13;4968216;28;20193;-72
2021/07/03 00:57:26;;;;;;;11.40;9.27;;;;;;;14.36;100.00;101008.00;4951849;29;20620;-73
2021/07/03 00:59:52;;;;;;;9.77;8.73;;;;;;;14.27;100.00;101009.72;4975212;28;20212;-74
2021/07/03 01:02:25;;;;;;;11.00;9.20;;;;;;;14.12;100.00;101008.22;4990329;28;20665;-74
2021/07/03 01:04:56;;;;;;;11.27;10.17;;;;;;;14.19;100.00;101004.03;4969134;28;20187;-73
2021/07/03 01:07:33;;;;;;;11.07;9.97;;;;;;;14.26;100.00;101005.34;4982784;28;20853;-73
2021/07/03 01:10:06;;;;;;;13.63;9.97;;;;;;;14.33;100.00;101003.09;4991066;28;20205;-73
2021/07/03 01:12:35;;;;;;;12.00;9.87;;;;;;;14.41;100.00;101007.94;4942941;28;20240;-73
2021/07/03 01:15:06;;;;;;;11.80;10.70;;;;;;;14.22;100.00;100999.94;4964857;28;20194;-73
2021/07/03 01:17:35;;;;;;;11.07;10.00;;;;;;;14.15;100.00;101002.19;4940563;28;20236;-73
2021/07/03 01:20:07;;;;;;;11.73;10.33;;;;;;;14.15;100.00;101013.91;4954578;28;20549;-73
2021/07/03 01:22:43;;;;;;;10.80;9.43;;;;;;;14.26;100.00;101015.47;4991231;28;20194;-73
2021/07/03 01:25:10;;;;;;;11.63;10.37;;;;;;;14.29;100.00;101007.50;4974230;28;20186;-73
2021/07/03 01:27:36;;;;;;;11.33;9.57;;;;;;;14.22;100.00;101008.94;4980740;28;20699;-73
2021/07/03 01:30:03;;;;;;;10.73;9.00;;;;;;;14.24;100.00;101004.00;4939831;28;20213;-75
2021/07/03 01:32:29;;;;;;;11.13;8.60;;;;;;;14.19;100.00;100998.56;4955012;28;20186;-73
2021/07/03 01:34:57;;;;;;;9.97;8.80;;;;;;;14.08;100.00;100999.78;4984241;28;20574;-72
2021/07/03 01:37:31;;;;;;;9.47;8.50;;;;;;;13.75;100.00;101007.94;4970646;28;20265;-72
2021/07/03 01:39:57;;;;;;;9.67;8.63;;;;;;;13.61;100.00;101006.97;4954158;28;20190;-73
2021/07/03 01:42:26;;;;;;;10.33;9.33;;;;;;;13.72;100.00;101003.06;4923793;29;20622;-73
2021/07/03 01:44:53;;;;;;;9.33;8.33;;;;;;;13.67;100.00;101003.09;4959416;28;20287;-73
2021/07/03 01:47:20;;;;;;;10.40;9.17;;;;;;;13.81;100.00;101001.34;4952821;28;20237;-73
2021/07/03 01:49:48;;;;;;;11.43;10.23;;;;;;;13.93;100.00;100996.34;4980648;28;20288;-73
2021/07/03 01:52:25;;;;;;;14.73;11.00;;;;;;;13.89;100.00;100998.00;5004216;28;20240;-73
2021/07/03 01:54:59;;;;;;;12.17;10.87;;;;;;;13.92;100.00;100990.06;4956073;28;20558;-73
2021/07/03 01:57:28;;;;;;;13.37;11.20;;;;;;;13.99;100.00;100992.44;4954601;28;20234;-73
2021/07/03 02:00:32;;;;;;;9.80;8.90;;;;;;;13.91;100.00;100990.34;4976466;28;20299;-72
2021/07/03 02:03:12;;;;;;;10.10;9.00;;;;;;;13.82;100.00;100988.50;4974313;28;20246;-73
2021/07/03 02:05:42;;;;;;;9.60;8.70;;;;;;;13.78;100.00;100998.38;4966424;28;20225;-73
2021/07/03 02:08:11;;;;;;;8.97;8.07;;;;;;;13.63;100.00;100993.03;4958630;28;20575;-73
2021/07/03 02:10:38;;;;;;;10.17;8.33;;;;;;;13.55;100.00;100991.72;4974429;28;20293;-73
2021/07/03 02:13:05;;;;;;;9.90;8.90;;;;;;;13.50;100.00;100997.19;4949717;28;20334;-73
2021/07/03 02:15:36;;;;;;;9.97;8.97;;;;;;;13.48;100.00;100996.66;4948764;28;20700;-72
2021/07/03 02:18:11;;;;;;;9.40;8.50;;;;;;;13.40;100.00;100987.44;4936470;29;20345;-72
2021/07/03 02:20:38;;;;;;;9.63;8.73;;;;;;;13.35;100.00;100992.91;4976286;28;20270;-74
2021/07/03 02:23:12;;;;;;;12.03;9.37;;;;;;;13.31;100.00;100989.13;4986685;28;20189;-72
2021/07/03 02:25:47;;;;;;;15.57;10.07;;;;;;;13.43;100.00;100992.34;4970059;28;20727;-72
2021/07/03 02:28:17;;;;;;;13.67;11.10;;;;;;;13.42;100.00;100979.78;4985053;28;20645;-73
2021/07/03 02:30:51;;;;;;;18.30;11.30;;;;;;;13.47;100.00;100995.03;4967509;28;20234;-72
2021/07/03 02:33:19;;;;;;;11.53;9.60;;;;;;;13.37;100.00;100997.03;4953704;28;20242;-71
2021/07/03 02:35:46;;;;;;;11.27;9.63;;;;;;;13.33;100.00;100992.38;4984193;28;20213;-72
2021/07/03 02:38:13;;;;;;;19.73;10.00;;;;;;;13.09;100.00;100999.63;4975587;28;20312;-73
2021/07/03 02:40:41;;;;;;;23.77;11.77;;;;;;;12.98;100.00;100984.38;4980087;28;20769;-73
2021/07/03 02:43:07;;;;;;;27.70;13.13;;;;;;;13.17;100.00;100993.59;4938146;28;20182;-73
2021/07/03 02:45:35;;;;;;;34.90;15.00;;;;;;;13.27;100.00;100990.81;4965642;28;20223;-73
2021/07/03 02:48:03;;;;;;;57.33;15.00;;;;;;;13.22;100.00;100996.28;4951071;29;20214;-73
2021/07/03 02:50:29;;;;;;;24.50;14.20;;;;;;;13.25;100.00;100995.72;4949185;28;20757;-73
2021/07/03 02:53:00;;;;;;;26.80;15.63;;;;;;;13.23;100.00;100995.19;4973612;28;20228;-73
2021/07/03 02:55:28;;;;;;;29.93;16.43;;;;;;;13.39;100.00;101002.16;4966907;28;20636;-73
2021/07/03 02:57:54;;;;;;;28.10;16.30;;;;;;;13.43;100.00;100998.63;4966984;28;20230;-72
2021/07/03 03:00:23;;;;;;;23.30;16.50;;;;;;;13.45;100.00;101002.69;4972125;28;20224;-73
2021/07/03 03:02:53;;;;;;;24.87;16.67;;;;;;;13.42;100.00;101018.00;4973439;28;20240;-73
2021/07/03 03:05:20;;;;;;;22.43;13.87;;;;;;;13.42;100.00;101007.88;4985613;28;20608;-73
2021/07/03 03:07:46;;;;;;;14.47;12.13;;;;;;;13.40;100.00;101009.28;4953830;28;20202;-73
2021/07/03 03:10:16;;;;;;;17.37;11.53;;;;;;;13.27;100.00;101015.34;4971362;28;20205;-73
2021/07/03 03:12:43;;;;;;;19.43;14.03;;;;;;;13.39;100.00;101013.94;4936145;28;20195;-73
2021/07/03 03:15:11;;;;;;;19.23;13.83;;;;;;;13.51;100.00;101004.28;4960897;28;20197;-73
2021/07/03 03:17:40;;;;;;;14.33;12.40;;;;;;;13.36;100.00;101016.41;4976689;28;20562;-74
2021/07/03 03:20:10;;;;;;;12.30;11.00;;;;;;;13.38;100.00;101011.47;4974604;28;20190;-72
2021/07/03 03:22:37;;;;;;;15.37;11.33;;;;;;;13.13;100.00;101014.31;4973520;28;20194;-72
2021/07/03 03:25:03;;;;;;;15.63;12.07;;;;;;;13.25;100.00;101006.63;4973845;28;20185;-73
2021/07/03 03:27:32;;;;;;;17.03;12.27;;;;;;;13.31;100.00;101010.97;4991841;28;20237;-73
2021/07/03 03:30:00;;;;;;;21.77;12.53;;;;;;;13.37;100.00;101009.81;4975877;28;20245;-73
2021/07/03 03:32:27;;;;;;;18.43;13.53;;;;;;;13.44;100.00;101010.34;4958004;28;20684;-73
2021/07/03 03:34:57;;;;;;;17.63;12.77;;;;;;;13.25;100.00;101010.16;4957997;28;20213;-73
2021/07/03 03:37:23;;;;;;;22.57;13.40;;;;;;;13.42;100.00;101012.53;4973510;28;20271;-73
2021/07/03 03:39:48;;;;;;;30.43;13.73;;;;;;;13.39;100.00;101013.94;4992297;28;20668;-74
2021/07/03 03:42:15;;;;;;;17.90;13.30;;;;;;;13.41;100.00;101006.28;4958324;28;20245;-73
2021/07/03 03:44:42;;;;;;;23.13;13.07;;;;;;;13.43;100.00;101008.72;4939478;28;20196;-73
2021/07/03 03:47:11;;;;;;;22.77;13.27;;;;;;;13.52;100.00;101018.75;4948339;28;20221;-73
2021/07/03 03:49:40;;;;;;;23.70;13.40;;;;;;;13.60;100.00;101021.69;4976517;28;20218;-73
2021/07/03 03:52:15;;;;;;;24.60;13.43;;;;;;;13.57;100.00;101010.50;4978235;28;20221;-74
2021/07/03 03:54:41;;;;;;;21.47;13.10;;;;;;;13.49;100.00;101016.59;4925992;28;20190;-73
2021/07/03 03:57:29;;;;;;;22.67;13.23;;;;;;;13.26;100.00;101020.00;4964319;28;20610;-73
2021/07/03 04:00:00;;;;;;;17.77;14.00;;;;;;;13.48;100.00;101018.50;4972238;28;20183;-73
2021/07/03 04:02:28;;;;;;;14.57;13.27;;;;;;;13.64;100.00;101027.41;4966869;28;20711;-74
2021/07/03 04:04:53;;;;;;;16.93;13.90;;;;;;;13.75;100.00;101024.31;4972956;28;20189;-74
2021/07/03 04:07:20;;;;;;;15.80;14.23;;;;;;;13.72;100.00;101024.91;4977836;28;20249;-73
2021/07/03 04:09:51;;;;;;;25.07;14.00;;;;;;;13.80;100.00;101018.81;4953381;28;20220;-73
2021/07/03 04:12:18;;;;;;;15.97;13.63;;;;;;;13.64;100.00;101028.22;4965656;28;20228;-73
2021/07/03 04:14:46;;;;;;;14.73;13.23;;;;;;;13.73;100.00;101018.31;4971781;28;20174;-73
2021/07/03 04:17:12;;;;;;;14.93;12.67;;;;;;;13.75;100.00;101021.59;4981855;28;20217;-73
2021/07/03 04:19:40;;;;;;;16.77;14.33;;;;;;;14.00;100.00;101027.69;4975736;28;20661;-73
2021/07/03 04:22:08;;;;;;;15.20;13.60;;;;;;;14.05;100.00;101024.94;4970967;28;20241;-73
2021/07/03 04:24:34;;;;;;;15.00;13.53;;;;;;;13.94;100.00;101023.38;4956575;28;20237;-72
2021/07/03 04:26:59;;;;;;;14.67;13.27;;;;;;;14.06;100.00;101023.03;4957379;28;20587;-72
2021/07/03 04:29:28;;;;;;;14.37;13.07;;;;;;;13.96;100.00;101020.34;4960131;28;20214;-74
2021/07/03 04:31:54;;;;;;;14.10;12.80;;;;;;;13.91;100.00;101014.91;4969532;28;20276;-73
2021/07/03 04:34:19;;;;;;;14.47;13.10;;;;;;;14.03;100.00;101020.88;4920074;28;20196;-73
2021/07/03 04:36:45;;;;;;;19.90;13.30;;;;;;;13.92;100.00;101030.22;4941364;28;20225;-72
2021/07/03 04:39:13;;;;;;;14.97;13.57;;;;;;;14.04;100.00;101023.31;4971945;28;20233;-72
2021/07/03 04:41:41;;;;;;;17.30;13.83;;;;;;;14.16;100.00;101022.94;4951482;28;20225;-73
2021/07/03 04:44:07;;;;;;;21.07;13.90;;;;;;;14.33;100.00;101016.75;4920768;29;20187;-73
2021/07/03 04:46:35;;;;;;;15.37;13.50;;;;;;;14.39;100.00;101021.06;4938929;28;20709;-73
2021/07/03 04:49:09;;;;;;;20.83;13.83;;;;;;;14.48;100.00;101024.81;4952189;29;20230;-73
2021/07/03 04:51:40;;;;;;;20.80;13.63;;;;;;;14.63;100.00;101021.91;4950807;28;20234;-72
2021/07/03 04:54:10;;;;;;;16.33;13.70;;;;;;;14.82;100.00;101020.09;4937116;29;20705;-74
2021/07/03 04:56:36;;;;;;;17.13;13.73;;;;;;;14.74;100.00;101012.50;4951956;28;20309;-72
2021/07/03 04:59:04;;;;;;;16.40;14.70;;;;;;;14.88;100.00;101013.44;4971567;28;20201;-72
2021/07/03 05:01:34;;;;;;;15.87;13.80;;;;;;;14.86;100.00;101012.91;4954586;28;20222;-71
2021/07/03 05:04:02;;;;;;;15.97;14.23;;;;;;;15.09;100.00;101023.81;4955530;28;20939;-73
2021/07/03 05:06:28;;;;;;;15.30;13.80;;;;;;;15.06;100.00;101019.75;4971260;28;20723;-73
2021/07/03 05:08:53;;;;;;;15.40;13.80;;;;;;;15.27;100.00;101018.41;4971781;28;20210;-73
2021/07/03 05:11:22;;;;;;;15.77;14.27;;;;;;;15.50;100.00;101012.91;4974527;28;20304;-73
2021/07/03 05:13:47;;;;;;;16.20;14.70;;;;;;;15.76;100.00;101016.09;4977316;28;20189;-73
2021/07/03 05:16:13;;;;;;;16.00;14.43;;;;;;;15.71;100.00;101016.16;4955989;28;20233;-73
2021/07/03 05:18:41;;;;;;;15.10;13.57;;;;;;;15.77;100.00;101022.09;4985898;28;20228;-72
2021/07/03 05:21:06;;;;;;;15.47;14.07;;;;;;;15.79;100.00;101021.78;4973303;28;20588;-72
2021/07/03 05:23:32;;;;;;;15.70;14.10;;;;;;;15.79;100.00;101019.84;4958917;28;20197;-73
2021/07/03 05:25:58;;;;;;;16.67;15.00;;;;;;;15.73;100.00;101017.47;4990507;28;20229;-73
2021/07/03 05:28:24;;;;;;;16.03;14.53;;;;;;;15.80;100.00;101018.75;4974593;28;20218;-72
2021/07/03 05:30:50;;;;;;;16.47;14.87;;;;;;;15.76;100.00;101021.56;4973430;28;20252;-73
2021/07/03 05:33:15;;;;;;;17.03;15.43;;;;;;;15.95;100.00;101014.94;4974465;28;20185;-73
2021/07/03 05:35:43;;;;;;;16.50;15.00;;;;;;;16.13;100.00;101020.41;4973583;28;20236;-73
2021/07/03 05:38:09;;;;;;;18.13;16.20;;;;;;;16.25;100.00;101015.31;4990647;28;20205;-72
2021/07/03 05:40:39;;;;;;;17.48;15.75;;;;;;;16.37;100.00;101013.72;4972750;28;20699;-72
2021/07/03 05:43:05;;;;;;;16.75;15.07;;;;;;;16.52;100.00;101021.66;4972190;28;20695;-73
2021/07/03 05:45:33;;;;;;;17.53;15.73;;;;;;;16.70;100.00;101024.34;4970579;28;20305;-73
2021/07/03 05:48:01;;;;;;;17.15;15.52;;;;;;;16.68;100.00;101018.34;4976552;28;20206;-73
2021/07/03 05:50:29;;;;;;;17.95;16.23;;;;;;;16.77;100.00;101018.44;4972791;28;20300;-73
2021/07/03 05:52:59;;;;;;;17.98;16.15;;;;;;;16.67;100.00;101019.44;4990311;28;20234;-73
2021/07/03 05:55:25;;;;;;;17.13;15.53;;;;;;;16.81;100.00;101011.22;4973550;28;20212;-72
2021/07/03 05:57:50;;;;;;;17.08;15.38;;;;;;;17.03;100.00;101009.38;4990306;28;20213;-73
2021/07/03 06:00:16;;;;;;;16.95;15.25;;;;;;;17.03;100.00;101012.13;4972408;28;20186;-73
2021/07/03 06:02:43;;;;;;;16.70;15.18;;;;;;;17.29;100.00;101010.50;4973919;28;20190;-72
2021/07/03 06:05:09;;;;;;;17.90;16.10;;;;;;;17.55;100.00;101009.66;4973411;28;20541;-74
2021/07/03 06:07:37;;;;;;;15.85;14.45;;;;;;;17.33;100.00;101006.06;4973979;28;20691;-72
2021/07/03 06:10:05;;;;;;;16.42;14.73;;;;;;;17.79;100.00;101000.81;4972303;28;20289;-72
2021/07/03 06:12:31;;;;;;;14.95;13.65;;;;;;;17.95;100.00;100998.53;4954824;28;20624;-73
2021/07/03 06:14:56;;;;;;;14.90;13.50;;;;;;;18.23;100.00;100989.84;4958780;28;20186;-73
2021/07/03 06:17:25;;;;;;;15.68;14.10;;;;;;;18.41;100.00;100999.84;4965677;28;20218;-72
2021/07/03 06:19:52;;;;;;;14.65;13.25;;;;;;;18.69;100.00;100993.84;4984964;28;20334;-72
2021/07/03 06:22:18;;;;;;;15.35;13.90;;;;;;;18.87;100.00;100990.03;4956905;28;20233;-72
2021/07/03 06:24:47;;;;;;;14.55;13.13;;;;;;;19.15;100.00;100993.06;4967087;28;20189;-73
2021/07/03 06:27:15;;;;;;;14.32;12.88;;;;;;;19.17;100.00;100998.25;4982591;28;20230;-73
2021/07/03 06:29:43;;;;;;;12.93;11.63;;;;;;;19.43;100.00;100989.72;4972992;28;20676;-72
2021/07/03 06:32:09;;;;;;;13.13;11.82;;;;;;;19.56;100.00;100993.44;4988183;28;20221;-73
2021/07/03 06:34:39;;;;;;;12.75;11.45;;;;;;;19.87;100.00;100983.91;4970257;28;20190;-72
2021/07/03 06:37:08;;;;;;;13.15;11.60;;;;;;;19.95;100.00;100981.16;4954038;28;20230;-73
2021/07/03 06:39:33;;;;;;;13.65;12.23;;;;;;;20.02;100.00;100987.00;4980400;28;20185;-74
2021/07/03 06:41:59;;;;;;;14.57;11.32;;;;;;;19.87;100.00;100990.28;4957158;28;20233;-73
2021/07/03 06:44:24;;;;;;;12.73;11.50;;;;;;;19.88;100.00;100986.34;4950199;28;20189;-73
2021/07/03 06:46:50;;;;;;;13.00;11.80;;;;;;;19.62;100.00;100992.19;4950986;28;20289;-73
2021/07/03 06:49:18;;;;;;;12.52;11.23;;;;;;;19.21;100.00;100985.44;4959483;28;20217;-73
2021/07/03 06:51:46;;;;;;;11.82;10.50;;;;;;;19.80;100.00;100984.41;4988364;28;20217;-72
2021/07/03 06:54:13;;;;;;;12.23;10.75;;;;;;;20.22;100.00;100981.63;4966535;28;20626;-73
2021/07/03 06:56:42;;;;;;;11.38;10.38;;;;;;;20.11;100.00;100987.81;4984657;28;20720;-73
2021/07/03 06:59:07;;;;;;;11.32;10.10;;;;;;;20.35;100.00;100971.53;4949019;28;20186;-73
2021/07/03 07:01:35;;;;;;;9.68;7.20;;;;;;;19.88;100.00;100974.53;4968232;28;20260;-73
2021/07/03 07:04:03;;;;;;;9.00;6.05;;;;;;;19.53;100.00;100988.59;4956368;28;20205;-73
2021/07/03 07:06:33;;;;;;;8.27;5.80;;;;;;;19.67;100.00;100979.03;4972440;28;20233;-73
2021/07/03 07:09:02;;;;;;;8.45;6.82;;;;;;;20.34;100.00;100978.97;4986880;28;20216;-73
2021/07/03 07:11:32;;;;;;;8.40;5.68;;;;;;;20.79;100.00;100975.47;4969716;28;20225;-72
2021/07/03 07:13:57;;;;;;;7.90;5.60;;;;;;;20.92;100.00;100979.94;4928635;28;20237;-73
2021/07/03 07:16:26;;;;;;;8.82;5.38;;;;;;;20.80;99.98;100977.06;4988781;28;20268;-73
2021/07/03 07:18:51;;;;;;;7.05;5.50;;;;;;;21.02;98.03;100980.38;4990649;28;20296;-73
2021/07/03 07:21:21;;;;;;;6.60;4.53;;;;;;;20.46;98.77;100971.66;4953035;28;20230;-73
2021/07/03 07:23:50;;;;;;;7.22;4.28;;;;;;;20.56;100.00;100976.81;4969549;28;20209;-74
2021/07/03 07:26:15;;;;;;;5.85;4.35;;;;;;;20.55;98.32;100979.91;4968823;28;20787;-73
2021/07/03 07:28:41;;;;;;;14.25;12.75;;;;;;;20.90;100.00;100983.03;4953127;28;20210;-75
2021/07/03 07:31:06;;;;;;;8.93;5.20;;;;;;;20.85;98.07;100985.19;4952217;28;20222;-74
2021/07/03 07:33:36;;;;;;;17.08;12.40;;;;;;;20.61;97.79;100976.63;4953860;28;20727;-75
2021/07/03 07:36:02;;;;;;;21.92;15.32;;;;;;;20.95;96.40;100973.75;4956233;28;20234;-76
2021/07/03 07:38:28;;;;;;;6.78;5.18;;;;;;;20.85;94.98;100985.97;4970252;28;20687;-75
2021/07/03 07:40:54;;;;;;;7.10;3.78;;;;;;;20.58;88.69;100980.03;4954587;28;20700;-73
2021/07/03 07:43:19;;;;;;;5.45;3.20;;;;;;;20.27;88.73;100981.44;4953085;28;20668;-74
2021/07/03 07:45:47;;;;;;;5.30;3.60;;;;;;;20.33;91.94;100976.53;4950803;28;20794;-74
2021/07/03 07:48:15;;;;;;;3.55;3.10;;;;;;;20.45;94.11;100975.53;4954983;28;20195;-74
2021/07/03 07:50:43;;;;;;;6.85;3.10;;;;;;;20.72;89.67;100975.16;4946950;28;20729;-74
2021/07/03 07:53:11;;;;;;;3.70;2.90;;;;;;;20.97;87.27;100982.50;4973063;28;20178;-73
2021/07/03 07:55:39;;;;;;;4.13;2.67;;;;;;;20.76;83.11;100976.13;4981406;28;20269;-74
2021/07/03 07:58:07;;;;;;;5.28;3.28;;;;;;;20.97;88.13;100966.78;4982631;28;20273;-75
2021/07/03 08:00:33;;;;;;;3.65;2.20;;;;;;;20.89;80.18;100972.31;4974248;28;20312;-75
2021/07/03 08:02:58;;;;;;;2.88;2.20;;;;;;;21.13;78.84;100976.09;4975289;28;20197;-75
2021/07/03 08:05:27;;;;;;;4.10;2.67;;;;;;;21.31;77.17;100983.13;4945881;28;20200;-75
2021/07/03 08:07:57;;;;;;;3.70;2.10;;;;;;;20.86;79.08;100975.75;4976535;28;20239;-74
2021/07/03 08:10:27;;;;;;;3.55;2.03;;;;;;;21.12;76.97;100973.69;4984705;28;20233;-75
2021/07/03 08:12:57;;;;;;;5.07;2.55;;;;;;;21.07;77.49;100976.63;4973044;28;20209;-75
2021/07/03 08:15:31;;;;;;;4.05;2.33;;;;;;;20.93;78.49;100964.97;4949810;28;20721;-74
2021/07/03 08:17:59;;;;;;;3.03;2.28;;;;;;;21.57;78.71;100965.25;4992230;28;20205;-75
2021/07/03 08:20:29;;;;;;;4.75;2.67;;;;;;;21.46;72.11;100974.28;4962883;28;20221;-75
2021/07/03 08:22:58;;;;;;;2.95;2.30;;;;;;;21.99;73.44;100962.13;4993573;28;20232;-74
2021/07/03 08:25:23;;;;;;;2.85;2.22;;;;;;;21.55;70.78;100962.00;4988587;28;20187;-74
2021/07/03 08:27:50;;;;;;;3.15;2.30;;;;;;;21.31;76.16;100967.34;4956255;28;20715;-75
2021/07/03 08:30:18;;;;;;;3.95;2.38;;;;;;;21.44;75.18;100966.31;4972139;28;20210;-74
2021/07/03 08:32:46;;;;;;;2.67;2.30;;;;;;;21.79;70.43;100971.25;4975739;28;20222;-73
2021/07/03 08:35:16;;;;;;;3.42;1.95;;;;;;;21.80;69.96;100963.78;4991153;28;20205;-75
2021/07/03 08:37:42;;;;;;;3.15;1.92;;;;;;;21.73;67.15;100974.56;4971991;28;20680;-75
2021/07/03 08:40:08;;;;;;;3.83;2.47;;;;;;;21.95;69.87;100957.63;4954912;28;20185;-73
2021/07/03 08:42:36;;;;;;;3.00;1.88;;;;;;;21.99;71.99;100955.78;4955261;28;20587;-73
2021/07/03 08:45:02;;;;;;;2.30;1.80;;;;;;;21.99;73.36;100962.13;4959551;28;20195;-73
2021/07/03 08:47:27;;;;;;;3.15;2.38;;;;;;;22.49;69.98;100961.63;4969327;28;20272;-73
2021/07/03 08:49:54;;;;;;;3.80;2.00;;;;;;;22.55;66.47;100962.22;4974965;28;20205;-74
2021/07/03 08:52:23;;;;;;;2.55;2.35;;;;;;;22.44;69.99;100955.50;4976646;28;20226;-74
2021/07/03 08:55:03;;;;;;;2.05;1.88;;;;;;;22.41;66.24;100959.75;4970193;28;20183;-74
2021/07/03 08:57:31;;;;;;;2.88;2.17;;;;;;;22.74;64.58;100951.38;4935394;28;20244;-73
2021/07/03 08:59:57;;;;;;;2.47;2.05;;;;;;;22.68;64.10;100952.78;4955557;28;20181;-74
2021/07/03 09:02:54;;;;;;;2.40;2.00;;;;;;;22.26;66.31;100954.06;4985317;28;20305;-73
2021/07/03 09:05:31;;;;;;;2.25;2.05;;;;;;;22.32;69.38;100944.38;4973980;28;20295;-73
2021/07/03 09:08:09;;;;;;;3.60;1.95;;;;;;;22.50;69.29;100946.59;4968324;28;20218;-74
2021/07/03 09:10:39;;;;;;;4.72;2.20;;;;;;;22.99;66.65;100943.56;4952857;28;20760;-74
2021/07/03 09:13:05;;;;;;;2.55;2.35;;;;;;;22.75;65.55;100953.00;4955239;28;20213;-74
2021/07/03 09:15:32;;;;;;;3.25;2.30;;;;;;;22.68;71.06;100947.22;4939183;28;20623;-73
2021/07/03 09:18:04;;;;;;;2.45;1.80;;;;;;;22.79;69.16;100952.75;4988758;28;20313;-73
2021/07/03 09:20:43;;;;;;;2.05;1.95;;;;;;;22.89;67.97;100949.59;4973697;28;20315;-73
2021/07/03 09:23:16;;;;;;;3.65;2.70;;;;;;;22.85;66.55;100945.03;4983912;28;20186;-75
2021/07/03 09:25:54;;;;;;;3.55;2.50;;;;;;;22.59;68.20;100949.28;4967983;28;20313;-73
2021/07/03 09:28:23;;;;;;;3.78;2.17;;;;;;;23.03;67.45;100943.69;4990950;28;20293;-74
2021/07/03 09:30:53;;;;;;;3.35;2.00;;;;;;;23.46;65.33;100930.78;4973208;28;20283;-74
2021/07/03 09:33:26;;;;;;;3.08;2.17;;;;;;;23.66;68.37;100937.03;4968221;28;20178;-74
2021/07/03 09:36:04;;;;;;;2.33;2.00;;;;;;;23.20;66.81;100941.47;4967405;28;20246;-74
2021/07/03 09:38:43;;;;;;;3.03;2.20;;;;;;;23.07;64.88;100936.28;4990752;28;20205;-74
2021/07/03 09:41:14;;;;;;;3.25;2.08;;;;;;;23.08;62.57;100929.59;4967811;28;20369;-73
2021/07/03 09:43:51;;;;;;;2.40;2.10;;;;;;;22.92;64.81;100929.47;4957673;28;20194;-73
2021/07/03 09:46:32;;;;;;;4.10;2.10;;;;;;;23.13;63.63;100932.94;4970725;28;20229;-73
2021/07/03 09:49:07;;;;;;;3.05;2.00;;;;;;;23.21;67.39;100934.78;4951610;29;20215;-75
2021/07/03 09:51:37;;;;;;;3.78;2.30;;;;;;;22.69;69.12;100926.66;4951308;28;20234;-74
2021/07/03 09:54:08;;;;;;;3.10;2.08;;;;;;;22.38;70.25;100937.50;4990771;28;20248;-73
2021/07/03 09:56:34;;;;;;;3.22;2.28;;;;;;;22.37;72.46;100924.78;4973192;28;20669;-73
2021/07/03 09:59:03;;;;;;;2.80;2.33;;;;;;;22.37;71.17;100924.78;4955014;28;20178;-74
2021/07/03 10:01:28;;;;;;;2.95;2.20;;;;;;;22.70;71.79;100928.28;4953444;28;20242;-74
2021/07/03 10:03:54;;;;;;;2.90;2.10;;;;;;;23.56;65.23;100919.22;4990391;28;20189;-73
2021/07/03 10:06:31;;;;;;;1.83;1.73;;;;;;;23.80;64.55;100909.66;4989368;28;20726;-74
2021/07/03 10:09:06;;;;;;;3.65;1.90;;;;;;;24.21;65.71;100920.31;4966511;28;20585;-74
2021/07/03 10:11:46;;;;;;;2.20;1.90;;;;;;;24.35;59.19;100914.00;4956759;28;20305;-73
2021/07/03 10:14:12;;;;;;;2.17;1.73;;;;;;;24.29;59.26;100908.31;4954318;28;20221;-74
2021/07/03 10:16:40;;;;;;;3.45;2.03;;;;;;;24.58;58.78;100915.03;4935091;28;20723;-73
2021/07/03 10:19:07;;;;;;;3.47;2.08;;;;;;;24.23;56.55;100918.00;4954482;28;20191;-74
2021/07/03 10:21:35;;;;;;;3.13;1.80;;;;;;;24.22;58.70;100922.75;4933922;29;20223;-74
2021/07/03 10:24:00;;;;;;;2.65;2.15;;;;;;;23.97;58.23;100910.19;4967264;28;20265;-75
2021/07/03 10:26:38;;;;;;;2.10;1.90;;;;;;;24.35;58.57;100904.09;4957312;28;20241;-75
2021/07/03 10:29:21;;;;;;;2.63;2.08;;;;;;;24.95;58.98;100908.06;4982692;28;20209;-75
2021/07/03 10:31:47;;;;;;;2.72;2.10;;;;;;;24.48;54.57;100907.22;4965877;28;20226;-75
2021/07/03 10:34:13;;;;;;;2.20;1.98;;;;;;;24.45;56.78;100901.56;4973628;28;20186;-74
2021/07/03 10:36:38;;;;;;;2.13;1.92;;;;;;;24.39;57.08;100903.84;4988782;28;20614;-75
2021/07/03 10:39:04;;;;;;;3.10;2.00;;;;;;;24.15;57.42;100905.09;4967239;28;20562;-75
2021/07/03 10:41:33;;;;;;;2.05;1.80;;;;;;;24.28;54.27;100895.56;4955812;28;20584;-75
2021/07/03 10:44:12;;;;;;;2.00;1.80;;;;;;;24.35;55.24;100892.97;4964808;28;20174;-74
2021/07/03 10:46:43;;;;;;;3.40;2.78;;;;;;;24.13;61.32;100896.31;4948592;28;20221;-75
2021/07/03 10:49:16;;;;;;;2.42;1.90;;;;;;;24.28;62.13;100887.22;4935782;28;20207;-74
2021/07/03 10:51:43;;;;;;;2.88;2.10;;;;;;;24.82;55.33;100890.63;4947303;28;20247;-74
2021/07/03 10:54:14;;;;;;;3.60;1.90;;;;;;;24.51;55.62;100895.41;4967365;28;20190;-75
2021/07/03 10:56:47;;;;;;;2.42;2.10;;;;;;;24.45;59.00;100888.50;4988577;28;20229;-75
2021/07/03 10:59:16;;;;;;;2.50;1.90;;;;;;;24.68;58.18;100883.13;4965541;28;20183;-74
2021/07/03 11:01:42;;;;;;;2.08;1.60;;;;;;;25.00;55.74;100877.16;4955726;28;20215;-75
2021/07/03 11:04:15;;;;;;;3.85;1.85;;;;;;;25.40;54.81;100884.88;4974677;28;20670;-76
2021/07/03 11:06:44;;;;;;;3.67;2.00;;;;;;;26.24;52.12;100874.28;4970773;28;20287;-76
2021/07/03 11:09:21;;;;;;;3.65;1.90;;;;;;;25.73;52.39;100874.03;4939829;28;20305;-75
2021/07/03 11:11:49;;;;;;;7.25;5.95;;;;;;;25.81;49.67;100876.63;4967063;28;20311;-74
2021/07/03 11:14:21;;;;;;;1.70;1.60;;;;;;;24.99;49.67;100881.91;4954496;28;20171;-75
2021/07/03 11:16:59;;;;;;;2.10;1.63;;;;;;;24.83;54.41;100874.75;4969972;28;20241;-75
2021/07/03 11:19:30;;;;;;;2.60;1.83;;;;;;;24.46;51.38;100887.31;4939406;28;20264;-77